ADDS METAR Data INFO
IDs: Format: Raw Decoded Include TAF

Data at: 0459 UTC 23 May 2017

KCYS 230453Z AUTO 31006KT 10SM FEW060 BKN070 BKN090 04/01 A3025 RMK AO2 SLP210 T00440011
KCYS 230353Z AUTO 35012KT 10SM FEW049 OVC070 04/01 A3024 RMK AO2 SLP211 T00440006
KCYS 230253Z 35014G22KT 10SM BKN039 BKN070 06/01 A3022 RMK AO2 PK WND 33027/0222 RAB23E46 SLP199 P0000 60000 T00560006 53013
KCYS 230153Z 33011KT 10SM CLR 07/M01 A3019 RMK AO2 SLP190 T00671006
KCYS 230053Z 33014G22KT 10SM CLR 07/01 A3018 RMK AO2 SLP202 T00720006
KCYS 222353Z 33015G21KT 10SM OVC110 06/02 A3017 RMK AO2 RAE2258 SLP209 P0000 60018 T00610017 10156 20028 58005
KCYS 222300Z 33015G22KT 10SM FEW010 BKN038 OVC055 04/02 A3018 RMK AO2 RAE2258 P0000 T00440022
KCYS 222253Z 34016G22KT 10SM -RA FEW009 BKN028 OVC055 04/02 A3019 RMK AO2 PK WND 35031/2224 SLP222 P0006 T00390017
KCYS 222232Z 36015G31KT 6SM -RA BR SCT011 OVC020 03/01 A3020 RMK AO2 PK WND 35031/2224 P0005 T00280011
KCYS 222153Z 36011G19KT 3SM RA BR BKN011 BKN016 OVC025 04/03 A3019 RMK AO2 SLP222 P0008 T00440028
KCYS 222135Z 36011G20KT 5SM -RA BR FEW008 BKN026 OVC044 04/02 A3018 RMK AO2 P0006 T00440022
KCYS 222117Z 01016G22KT 4SM RA BR FEW009 SCT023 OVC043 04/02 A3017 RMK AO2 P0003 T00390022
KCYS 222102Z 36016G25KT 2SM RA BR SCT008 BKN022 OVC036 04/02 A3017 RMK AO2 P0003 T00390022
KCYS 222053Z 01017G29KT 2SM RA BR SCT010 BKN015 OVC022 04/02 A3018 RMK AO2 PK WND 01034/2021 TWR VIS 3 SLP217 P0003 60004 T00390022 53015
KCYS 222050Z 01021G29KT 2 1/2SM RA BR BKN010 OVC024 04/02 A3018 RMK AO2 PK WND 01034/2021 TWR VIS 3 P0002
KCYS 222046Z 01016G29KT 3SM RA BR BKN009 OVC026 04/02 A3018 RMK AO2 PK WND 01034/2021 TWR VIS 4 P0000 T00390022
KCYS 222024Z 01022G34KT 6SM -RA BR BKN011 BKN015 OVC024 05/03 A3017 RMK AO2 PK WND 01034/2021 P0000 T00500028
KCYS 222010Z 01022G28KT 10SM -RA BKN018 BKN032 OVC050 08/04 A3015 RMK AO2 PK WND 01028/2010 P0000 T00780044
KCYS 221953Z 02018G22KT 10SM -RA FEW026 BKN036 OVC060 09/06 A3014 RMK AO2 PK WND 36029/1902 WSHFT 1845 RAB04 SLP184 P0001 T00940056
KCYS 221905Z 35014G29KT 9SM -RA FEW041 BKN060 OVC075 11/02 A3012 RMK AO2 PK WND 36029/1902 WSHFT 1845 RAB04 P0000 T01110017
KCYS 221853Z AUTO 01011G22KT 330V050 10SM BKN070 OVC090 14/M01 A3010 RMK AO2 PK WND 33028/1835 SLP155 T01391011
KCYS 221753Z 31017G31KT 10SM CLR 14/M02 A3013 RMK AO2 PK WND 28031/1705 SLP162 T01441017 10150 20028 58013
KCYS 221653Z 31017G29KT 10SM CLR 13/M01 A3015 RMK AO2 PK WND 32032/1613 SLP172 T01331006
KCYS 221553Z 31019G26KT 10SM CLR 12/M02 A3017 RMK AO2 PK WND 31028/1530 SLP177 T01221017
KCYS 221453Z 31013G21KT 10SM CLR 12/M01 A3017 RMK AO2 SLP175 T01171011 55003
KCYS 221353Z 30013G18KT 10SM CLR 09/01 A3017 RMK AO2 SLP180 T00940006 $
KCYS 221253Z 28009KT 10SM CLR 05/01 A3018 RMK AO2 SLP198 T00500006 $
KCYS 221153Z 28010KT 10SM CLR 03/00 A3018 RMK AO2 SLP202 70002 T00280000 10044 20017 56012 $
KCYS 221053Z AUTO 28010KT 10SM CLR 02/M01 A3019 RMK AO2 SLP212 T00221011 $
KCYS 220953Z AUTO 28010KT 10SM CLR 02/M01 A3021 RMK AO2 SLP211 T00221011 $
KCYS 220853Z AUTO 29009KT 10SM CLR 03/00 A3022 RMK AO2 SLP211 T00280000 57010 $
KCYS 220753Z AUTO 30008KT 10SM CLR 04/01 A3023 RMK AO2 SLP211 T00390011 $
KCYS 220653Z AUTO 29008KT 10SM CLR 04/02 A3025 RMK AO2 SLP212 T00440017 401330028 $
KCYS 220553Z AUTO 27010KT 10SM CLR 04/02 A3026 RMK AO2 SLP220 T00440022 10094 20044 50004 $
KCYS 220453Z AUTO 28007KT 10SM OVC080 06/02 A3026 RMK AO2 SLP220 T00560022 $
KCYS 220353Z 31006KT 10SM SCT060 SCT080 07/03 A3026 RMK AO2 SLP216 T00670028 $
KCYS 220253Z 30005KT 10SM FEW070 OVC090 08/03 A3025 RMK AO2 SLP212 T00780033 53009 $
KCYS 220153Z 31006KT 10SM OVC095 08/04 A3023 RMK AO2 SLP207 T00830039 $
KCYS 220053Z 30005KT 10SM OVC075 08/03 A3023 RMK AO2 SLP212 T00830033 $
KCYS 212353Z 29009KT 10SM BKN100 09/04 A3022 RMK AO2 RAE13 SLP214 P0000 60002 T00890044 10133 20072 50003 $
KCYS 212253Z 29006KT 8SM -RA BKN037 BKN043 OVC050 07/04 A3022 RMK AO2 PK WND 27031/2204 RAB03 SLP219 P0002 T00720044 $
KCYS 212153Z 29015G23KT 10SM BKN070 BKN100 OVC110 09/02 A3022 RMK AO2 SLP209 T00940022 $
KCYS 212053Z 25012KT 10SM SCT095 12/03 A3021 RMK AO2 LTG DSNT SE SLP197 T01170033 58005 $
KCYS 211953Z 29008G14KT 10SM FEW055 SCT100 12/03 A3022 RMK AO2 SLP205 T01170028 $
KCYS 211853Z 32009KT 10SM BKN070 BKN085 12/02 A3022 RMK AO2 SLP204 T01170017 $
KCYS 211753Z 34007KT 10SM FEW029 FEW060 SCT070 11/02 A3022 RMK AO2 RAE1655 SLP207 P0000 60000 T01110017 10117 20033 50000 $


Page loaded:  04:59 UTC  |   09:59 PM Pacific  |   10:59 PM Mountain  |   11:59 PM Central  |   12:59 AM Eastern

 

ADVISORIES

FORECASTS

FORECASTS

OBSERVATIONS

USER TOOLS

ABOUT US